Time;durP1;ratioP1;P1;durP2;ratioP2;P2;SDS_P1;SDS_P2;PMS_P1;PMS_P2;Temp;Humidity;BMP_temperature;BMP_pressure;BME280_temperature;BME280_humidity;BME280_pressure;Samples;Min_cycle;Max_cycle;Signal;HPM_P1;HPM_P2
2022/04/16 00:00:27;;;;;;;;;;;;;;;;;;1031910;28;4658;-65
2022/04/16 00:01:07;;;;;;;;;;;;;;;;;;1032131;28;4077;-67
2022/04/16 00:01:37;;;;;;;;;;;;;;;;;;1031396;28;3901;-65
2022/04/16 00:02:08;;;;;;;;;;;;;;;;;;1034086;28;3746;-67
2022/04/16 00:02:38;;;;;;;;;;;;;;;;;;1039916;28;4330;-67
2022/04/16 00:03:11;;;;;;;;;;;;;;;;;;1039508;28;4097;-67
2022/04/16 00:03:42;;;;;;;;;;;;;;;;;;1037120;28;4211;-65
2022/04/16 00:04:12;;;;;;;;;;;;;;;;;;1038384;28;4403;-65
2022/04/16 00:04:42;;;;;;;;;;;;;;;;;;1037390;28;3819;-69
2022/04/16 00:05:15;;;;;;;;;;;;;;;;;;1040064;28;3776;-65
2022/04/16 00:05:46;;;;;;;;;;;;;;;;;;1038106;28;4443;-68
2022/04/16 00:06:16;;;;;;;;;;;;;;;;;;1038541;28;4285;-68
2022/04/16 00:06:46;;;;;;;;;;;;;;;;;;1035735;28;3830;-66
2022/04/16 00:07:16;;;;;;;;;;;;;;;;;;1037258;28;3610;-67
2022/04/16 00:08:06;;;;;;;;;;;;;;;;;;1035837;28;3884;-67
2022/04/16 00:08:49;;;;;;;;;;;;;;;;;;1039117;28;3899;-67
2022/04/16 00:09:27;;;;;;;;;;;;;;;;;;1039028;28;3629;-64
2022/04/16 00:09:57;;;;;;;;;;;;;;;;;;1038401;28;4377;-66
2022/04/16 00:10:28;;;;;;;;;;;;;;;;;;1038348;28;3105;-65
2022/04/16 00:10:59;;;;;;;;;;;;;;;;;;1038438;28;3873;-67
2022/04/16 00:11:29;;;;;;;;;;;;;;;;;;1040281;28;3474;-67
2022/04/16 00:12:00;;;;;;;;;;;;;;;;;;1039771;28;3894;-68
2022/04/16 00:12:30;;;;;;;;;;;;;;;;;;1040206;28;3606;-67
2022/04/16 00:13:01;;;;;;;;;;;;;;;;;;1039273;28;3862;-69
2022/04/16 00:13:32;;;;;;;;;;;;;;;;;;1039470;28;4406;-65
2022/04/16 00:14:03;;;;;;;;;;;;;;;;;;1036094;28;3357;-67
2022/04/16 00:14:35;;;;;;;;;;;;;;;;;;1035522;28;4004;-67
2022/04/16 00:15:06;;;;;;;;;;;;;;;;;;1039975;28;3794;-65
2022/04/16 00:15:38;;;;;;;;;;;;;;;;;;1041482;28;3912;-66
2022/04/16 00:16:09;;;;;;;;;;;;;;;;;;1042203;28;3632;-66
2022/04/16 00:16:39;;;;;;;;;;;;;;;;;;1037830;28;5012;-68
2022/04/16 00:17:09;;;;;;;;;;;;;;;;;;1036439;28;3338;-65
2022/04/16 00:17:39;;;;;;;;;;;;;;;;;;1035276;28;4103;-67
2022/04/16 00:18:10;;;;;;;;;;;;;;;;;;1033704;28;3652;-68
2022/04/16 00:18:40;;;;;;;;;;;;;;;;;;1039800;28;4040;-65
2022/04/16 00:19:11;;;;;;;;;;;;;;;;;;1042083;28;3308;-65
2022/04/16 00:19:43;;;;;;;;;;;;;;;;;;1039318;28;3956;-67
2022/04/16 00:20:13;;;;;;;;;;;;;;;;;;1041643;28;4306;-66
2022/04/16 00:20:44;;;;;;;;;;;;;;;;;;1039960;28;4071;-67
2022/04/16 00:21:15;;;;;;;;;;;;;;;;;;1033445;28;3913;-67
2022/04/16 00:21:45;;;;;;;;;;;;;;;;;;1039702;28;4462;-69
2022/04/16 00:22:15;;;;;;;;;;;;;;;;;;1038714;28;3559;-67
2022/04/16 00:22:45;;;;;;;;;;;;;;;;;;1037841;28;3913;-67
2022/04/16 00:23:22;;;;;;;;;;;;;;;;;;1039344;28;3096;-66
2022/04/16 00:23:53;;;;;;;;;;;;;;;;;;1040009;28;4235;-67
2022/04/16 00:24:23;;;;;;;;;;;;;;;;;;1040129;28;4207;-66
2022/04/16 00:24:53;;;;;;;;;;;;;;;;;;1038795;28;3793;-66
2022/04/16 00:25:24;;;;;;;;;;;;;;;;;;1041030;28;3126;-66
2022/04/16 00:25:55;;;;;;;;;;;;;;;;;;1039076;28;4289;-69
2022/04/16 00:26:25;;;;;;;;;;;;;;;;;;1041032;28;3553;-67
2022/04/16 00:26:55;;;;;;;;;;;;;;;;;;1037680;28;4329;-67
2022/04/16 00:27:26;;;;;;;;;;;;;;;;;;1038682;28;3331;-65
2022/04/16 00:27:56;;;;;;;;;;;;;;;;;;1038049;28;3949;-70
2022/04/16 00:28:30;;;;;;;;;;;;;;;;;;1045397;28;2901;-68
2022/04/16 00:29:00;;;;;;;;;;;;;;;;;;1041443;28;4001;-66
2022/04/16 00:29:30;;;;;;;;;;;;;;;;;;1042851;28;3250;-69
2022/04/16 00:30:01;;;;;;;;;;;;;;;;;;1041899;28;3637;-67
2022/04/16 00:30:37;;;;;;;;;;;;;;;;;;1035041;28;4151;-67
2022/04/16 00:31:07;;;;;;;;;;;;;;;;;;1034816;28;3490;-67
2022/04/16 00:31:38;;;;;;;;;;;;;;;;;;1036765;28;4085;-64
2022/04/16 00:32:08;;;;;;;;;;;;;;;;;;1037067;28;3605;-66
2022/04/16 00:32:40;;;;;;;;;;;;;;;;;;1038587;28;4424;-66
2022/04/16 00:33:15;;;;;;;;;;;;;;;;;;1038894;28;4496;-67
2022/04/16 00:33:46;;;;;;;;;;;;;;;;;;1040179;28;3859;-68
2022/04/16 00:34:16;;;;;;;;;;;;;;;;;;1039750;28;3094;-66
2022/04/16 00:34:47;;;;;;;;;;;;;;;;;;1038356;28;4122;-66
2022/04/16 00:35:18;;;;;;;;;;;;;;;;;;1044705;28;3245;-66
2022/04/16 00:35:49;;;;;;;;;;;;;;;;;;1042032;28;4265;-65
2022/04/16 00:36:19;;;;;;;;;;;;;;;;;;1041540;28;3069;-67
2022/04/16 00:36:50;;;;;;;;;;;;;;;;;;1042076;28;4385;-66
2022/04/16 00:37:21;;;;;;;;;;;;;;;;;;1039710;28;3533;-65
2022/04/16 00:37:51;;;;;;;;;;;;;;;;;;1038755;28;3969;-65
2022/04/16 00:38:21;;;;;;;;;;;;;;;;;;1040663;28;3584;-67
2022/04/16 00:38:52;;;;;;;;;;;;;;;;;;1042670;28;4213;-66
2022/04/16 00:39:22;;;;;;;;;;;;;;;;;;1042561;28;3556;-68
2022/04/16 00:39:52;;;;;;;;;;;;;;;;;;1042577;28;4208;-67
2022/04/16 00:40:22;;;;;;;;;;;;;;;;;;1043455;28;3527;-65
2022/04/16 00:40:53;;;;;;;;;;;;;;;;;;1038306;28;4191;-67
2022/04/16 00:41:23;;;;;;;;;;;;;;;;;;1038137;28;3504;-66
2022/04/16 00:41:53;;;;;;;;;;;;;;;;;;1039379;28;3759;-67
2022/04/16 00:42:40;;;;;;;;;;;;;;;;;;1039996;28;3396;-67
2022/04/16 00:43:23;;;;;;;;;;;;;;;;;;1036277;28;5350;-68
2022/04/16 00:43:53;;;;;;;;;;;;;;;;;;1041205;28;3983;-67
2022/04/16 00:44:25;;;;;;;;;;;;;;;;;;1041759;28;3627;-65
2022/04/16 00:44:55;;;;;;;;;;;;;;;;;;1041468;28;4079;-65
2022/04/16 00:45:25;;;;;;;;;;;;;;;;;;1043181;28;4255;-65
2022/04/16 00:45:56;;;;;;;;;;;;;;;;;;1039515;28;4643;-69
2022/04/16 00:46:26;;;;;;;;;;;;;;;;;;1037921;28;3498;-67
2022/04/16 00:46:57;;;;;;;;;;;;;;;;;;1039320;28;4481;-68
2022/04/16 00:47:27;;;;;;;;;;;;;;;;;;1038648;28;3541;-68
2022/04/16 00:47:59;;;;;;;;;;;;;;;;;;1039131;28;4457;-68
2022/04/16 00:48:29;;;;;;;;;;;;;;;;;;1038615;28;3307;-66
2022/04/16 00:49:00;;;;;;;;;;;;;;;;;;1034925;28;4402;-65
2022/04/16 00:49:31;;;;;;;;;;;;;;;;;;1035549;28;4087;-67
2022/04/16 00:50:02;;;;;;;;;;;;;;;;;;1031387;28;3662;-66
2022/04/16 00:50:32;;;;;;;;;;;;;;;;;;1032198;28;4088;-68
2022/04/16 00:51:02;;;;;;;;;;;;;;;;;;1036440;28;3506;-68
2022/04/16 00:51:34;;;;;;;;;;;;;;;;;;1035618;28;3890;-67
2022/04/16 00:52:05;;;;;;;;;;;;;;;;;;1042861;28;3201;-66
2022/04/16 00:52:36;;;;;;;;;;;;;;;;;;1044440;28;4014;-68
2022/04/16 00:53:06;;;;;;;;;;;;;;;;;;1043686;28;2981;-65
2022/04/16 00:53:37;;;;;;;;;;;;;;;;;;1042518;28;4052;-66
2022/04/16 00:54:07;;;;;;;;;;;;;;;;;;1034557;28;3558;-67
2022/04/16 00:54:37;;;;;;;;;;;;;;;;;;1030472;28;3883;-65
2022/04/16 00:55:08;;;;;;;;;;;;;;;;;;1031542;28;3623;-65
2022/04/16 00:55:38;;;;;;;;;;;;;;;;;;1030568;28;3844;-67
2022/04/16 00:56:10;;;;;;;;;;;;;;;;;;1034031;28;3730;-68
2022/04/16 00:56:42;;;;;;;;;;;;;;;;;;1034241;28;3872;-69
2022/04/16 00:57:12;;;;;;;;;;;;;;;;;;1035825;28;4205;-66
2022/04/16 00:57:49;;;;;;;;;;;;;;;;;;1035701;28;3922;-67
2022/04/16 00:58:19;;;;;;;;;;;;;;;;;;1036829;28;4084;-67
2022/04/16 00:58:50;;;;;;;;;;;;;;;;;;1042692;28;4394;-66
2022/04/16 00:59:20;;;;;;;;;;;;;;;;;;1038420;28;3750;-68
2022/04/16 00:59:51;;;;;;;;;;;;;;;;;;1037676;28;4571;-67
2022/04/16 01:00:22;;;;;;;;;;;;;;;;;;1033650;28;3292;-67
2022/04/16 01:00:52;;;;;;;;;;;;;;;;;;1029082;28;4365;-67
2022/04/16 01:01:22;;;;;;;;;;;;;;;;;;1034718;28;3933;-65
2022/04/16 01:01:52;;;;;;;;;;;;;;;;;;1033472;28;4184;-68
2022/04/16 01:02:23;;;;;;;;;;;;;;;;;;1040013;28;3522;-68
2022/04/16 01:02:54;;;;;;;;;;;;;;;;;;1038639;28;4083;-66
2022/04/16 01:03:26;;;;;;;;;;;;;;;;;;1038182;28;3982;-67
2022/04/16 01:03:56;;;;;;;;;;;;;;;;;;1034261;28;3883;-68
2022/04/16 01:04:26;;;;;;;;;;;;;;;;;;1035136;28;3117;-67
2022/04/16 01:04:57;;;;;;;;;;;;;;;;;;1034930;28;3932;-66
2022/04/16 01:05:27;;;;;;;;;;;;;;;;;;1036184;28;3609;-69
2022/04/16 01:05:58;;;;;;;;;;;;;;;;;;1035376;28;3952;-66
2022/04/16 01:06:34;;;;;;;;;;;;;;;;;;1034883;28;3016;-65
2022/04/16 01:07:08;;;;;;;;;;;;;;;;;;1039049;28;3925;-66
2022/04/16 01:07:48;;;;;;;;;;;;;;;;;;1038865;28;4204;-66
2022/04/16 01:08:19;;;;;;;;;;;;;;;;;;1040924;28;3477;-65
2022/04/16 01:09:02;;;;;;;;;;;;;;;;;;1036172;28;4121;-65
2022/04/16 01:09:41;;;;;;;;;;;;;;;;;;1029707;28;4318;-66
2022/04/16 01:10:11;;;;;;;;;;;;;;;;;;1029775;28;3099;-66
2022/04/16 01:10:42;;;;;;;;;;;;;;;;;;1029984;28;4123;-67
2022/04/16 01:11:13;;;;;;;;;;;;;;;;;;1031735;28;3708;-65
2022/04/16 01:11:44;;;;;;;;;;;;;;;;;;1031232;28;3995;-65
2022/04/16 01:12:14;;;;;;;;;;;;;;;;;;1029461;28;4281;-65
2022/04/16 01:12:45;;;;;;;;;;;;;;;;;;1030337;28;4238;-66
2022/04/16 01:13:15;;;;;;;;;;;;;;;;;;1030375;28;3000;-69
2022/04/16 01:13:47;;;;;;;;;;;;;;;;;;1026668;28;4575;-68
2022/04/16 01:14:19;;;;;;;;;;;;;;;;;;1027504;28;4987;-69
2022/04/16 01:14:50;;;;;;;;;;;;;;;;;;1028259;28;3854;-67
2022/04/16 01:15:20;;;;;;;;;;;;;;;;;;1026959;28;4096;-66
2022/04/16 01:15:51;;;;;;;;;;;;;;;;;;1031009;28;4009;-67
2022/04/16 01:16:21;;;;;;;;;;;;;;;;;;1032850;28;3511;-68
2022/04/16 01:16:53;;;;;;;;;;;;;;;;;;1025562;28;3915;-67
2022/04/16 01:17:23;;;;;;;;;;;;;;;;;;1028261;28;2962;-66
2022/04/16 01:17:54;;;;;;;;;;;;;;;;;;1028814;28;4193;-66
2022/04/16 01:18:24;;;;;;;;;;;;;;;;;;1027657;28;3291;-68
2022/04/16 01:18:55;;;;;;;;;;;;;;;;;;1031127;28;4035;-68
2022/04/16 01:19:25;;;;;;;;;;;;;;;;;;1030946;28;3582;-65
2022/04/16 01:19:57;;;;;;;;;;;;;;;;;;1029941;28;4056;-68
2022/04/16 01:20:29;;;;;;;;;;;;;;;;;;1030588;28;3708;-68
2022/04/16 01:21:01;;;;;;;;;;;;;;;;;;1031403;28;4476;-68
2022/04/16 01:21:33;;;;;;;;;;;;;;;;;;1029272;28;4453;-65
2022/04/16 01:22:05;;;;;;;;;;;;;;;;;;1031298;28;3248;-66
2022/04/16 01:22:35;;;;;;;;;;;;;;;;;;1030646;28;4113;-68
2022/04/16 01:23:06;;;;;;;;;;;;;;;;;;1031542;28;3750;-65
2022/04/16 01:23:36;;;;;;;;;;;;;;;;;;1026849;28;4145;-66
2022/04/16 01:24:09;;;;;;;;;;;;;;;;;;1025862;28;3142;-66
2022/04/16 01:24:43;;;;;;;;;;;;;;;;;;1026800;28;3897;-67
2022/04/16 01:25:13;;;;;;;;;;;;;;;;;;1028628;28;3464;-69
2022/04/16 01:25:44;;;;;;;;;;;;;;;;;;1031159;28;4023;-67
2022/04/16 01:26:14;;;;;;;;;;;;;;;;;;1031893;28;3419;-68
2022/04/16 01:26:44;;;;;;;;;;;;;;;;;;1030776;28;3826;-65
2022/04/16 01:27:15;;;;;;;;;;;;;;;;;;1029707;28;2130;-67
2022/04/16 01:27:46;;;;;;;;;;;;;;;;;;1031607;28;4423;-66
2022/04/16 01:28:16;;;;;;;;;;;;;;;;;;1031216;28;3380;-67
2022/04/16 01:28:46;;;;;;;;;;;;;;;;;;1031882;28;4059;-66
2022/04/16 01:29:17;;;;;;;;;;;;;;;;;;1032048;28;3031;-67
2022/04/16 01:29:48;;;;;;;;;;;;;;;;;;1031895;28;3903;-67
2022/04/16 01:30:19;;;;;;;;;;;;;;;;;;1032085;28;3392;-67
2022/04/16 01:30:49;;;;;;;;;;;;;;;;;;1032752;28;4392;-69
2022/04/16 01:31:19;;;;;;;;;;;;;;;;;;1031521;28;3407;-66
2022/04/16 01:31:50;;;;;;;;;;;;;;;;;;1031573;28;4317;-68
2022/04/16 01:32:20;;;;;;;;;;;;;;;;;;1030175;28;3554;-65
2022/04/16 01:32:50;;;;;;;;;;;;;;;;;;1032127;28;4196;-67
2022/04/16 01:33:27;;;;;;;;;;;;;;;;;;1031008;28;3525;-67
2022/04/16 01:33:57;;;;;;;;;;;;;;;;;;1035395;28;3951;-67
2022/04/16 01:34:29;;;;;;;;;;;;;;;;;;1034648;28;3601;-68
2022/04/16 01:35:00;;;;;;;;;;;;;;;;;;1034329;28;3848;-66
2022/04/16 01:35:30;;;;;;;;;;;;;;;;;;1035244;28;2883;-67
2022/04/16 01:36:01;;;;;;;;;;;;;;;;;;1032725;28;3634;-67
2022/04/16 01:36:31;;;;;;;;;;;;;;;;;;1031351;28;4077;-65
2022/04/16 01:37:02;;;;;;;;;;;;;;;;;;1032756;28;2400;-67
2022/04/16 01:37:34;;;;;;;;;;;;;;;;;;1027238;28;4525;-66
2022/04/16 01:38:06;;;;;;;;;;;;;;;;;;1027016;28;3226;-67
2022/04/16 01:38:37;;;;;;;;;;;;;;;;;;1030663;28;3817;-66
2022/04/16 01:39:07;;;;;;;;;;;;;;;;;;1030670;28;3022;-66
2022/04/16 01:39:37;;;;;;;;;;;;;;;;;;1030492;28;4472;-67
2022/04/16 01:40:09;;;;;;;;;;;;;;;;;;1031184;28;3485;-67
2022/04/16 01:40:39;;;;;;;;;;;;;;;;;;1030865;28;3818;-66
2022/04/16 01:41:09;;;;;;;;;;;;;;;;;;1031906;28;3452;-65
2022/04/16 01:41:40;;;;;;;;;;;;;;;;;;1031835;28;4116;-66
2022/04/16 01:42:11;;;;;;;;;;;;;;;;;;1032257;28;3432;-67
2022/04/16 01:42:43;;;;;;;;;;;;;;;;;;1030075;28;3920;-66
2022/04/16 01:43:13;;;;;;;;;;;;;;;;;;1030763;28;3291;-68
2022/04/16 01:43:44;;;;;;;;;;;;;;;;;;1030494;28;4136;-67
2022/04/16 01:44:14;;;;;;;;;;;;;;;;;;1032407;28;3466;-67
2022/04/16 01:44:44;;;;;;;;;;;;;;;;;;1032270;28;3853;-67
2022/04/16 01:45:18;;;;;;;;;;;;;;;;;;1027941;28;3099;-66
2022/04/16 01:45:49;;;;;;;;;;;;;;;;;;1027427;28;4238;-67
2022/04/16 01:46:20;;;;;;;;;;;;;;;;;;1031992;28;3447;-68
2022/04/16 01:46:51;;;;;;;;;;;;;;;;;;1031324;28;3813;-66
2022/04/16 01:47:21;;;;;;;;;;;;;;;;;;1031892;28;3659;-67
2022/04/16 01:47:51;;;;;;;;;;;;;;;;;;1032024;28;3865;-67
2022/04/16 01:48:22;;;;;;;;;;;;;;;;;;1031260;28;3519;-68
2022/04/16 01:48:55;;;;;;;;;;;;;;;;;;1030637;28;4080;-66
2022/04/16 01:49:26;;;;;;;;;;;;;;;;;;1030065;28;2988;-67
2022/04/16 01:49:56;;;;;;;;;;;;;;;;;;1030266;28;4115;-66
2022/04/16 01:50:27;;;;;;;;;;;;;;;;;;1030811;28;2997;-68
2022/04/16 01:50:58;;;;;;;;;;;;;;;;;;1030692;28;3787;-70
2022/04/16 01:51:28;;;;;;;;;;;;;;;;;;1027989;28;3154;-67
2022/04/16 01:51:59;;;;;;;;;;;;;;;;;;1031016;28;4080;-66
2022/04/16 01:52:29;;;;;;;;;;;;;;;;;;1033210;28;3277;-68
2022/04/16 01:52:59;;;;;;;;;;;;;;;;;;1031359;28;3757;-67
2022/04/16 01:53:29;;;;;;;;;;;;;;;;;;1032317;28;6380;-69
2022/04/16 01:54:00;;;;;;;;;;;;;;;;;;1035394;28;3749;-67
2022/04/16 01:54:31;;;;;;;;;;;;;;;;;;1034345;28;2558;-67
2022/04/16 01:55:01;;;;;;;;;;;;;;;;;;1034162;28;3934;-69
2022/04/16 01:55:31;;;;;;;;;;;;;;;;;;1030356;28;3835;-67
2022/04/16 01:56:02;;;;;;;;;;;;;;;;;;1036424;28;3013;-66
2022/04/16 01:56:32;;;;;;;;;;;;;;;;;;1030855;28;3881;-70
2022/04/16 01:57:02;;;;;;;;;;;;;;;;;;1029076;28;1755;-67
2022/04/16 01:57:33;;;;;;;;;;;;;;;;;;1030126;28;3995;-66
2022/04/16 01:58:20;;;;;;;;;;;;;;;;;;1026845;28;3489;-65
2022/04/16 01:59:11;;;;;;;;;;;;;;;;;;1029117;28;4932;-70
2022/04/16 01:59:41;;;;;;;;;;;;;;;;;;1037268;28;3993;-68
2022/04/16 02:00:14;;;;;;;;;;;;;;;;;;1038598;28;3653;-66
2022/04/16 02:00:44;;;;;;;;;;;;;;;;;;1039613;28;3879;-66
2022/04/16 02:01:15;;;;;;;;;;;;;;;;;;1042352;28;3488;-68
2022/04/16 02:01:45;;;;;;;;;;;;;;;;;;1041373;28;3849;-66
2022/04/16 02:02:16;;;;;;;;;;;;;;;;;;1043553;28;3423;-67
2022/04/16 02:02:46;;;;;;;;;;;;;;;;;;1043102;28;3823;-65
2022/04/16 02:03:19;;;;;;;;;;;;;;;;;;1042966;28;3678;-65
2022/04/16 02:03:49;;;;;;;;;;;;;;;;;;1042526;28;4557;-65
2022/04/16 02:04:20;;;;;;;;;;;;;;;;;;1042934;28;3440;-65
2022/04/16 02:04:51;;;;;;;;;;;;;;;;;;1040584;28;4048;-65
2022/04/16 02:05:22;;;;;;;;;;;;;;;;;;1042496;28;3610;-66
2022/04/16 02:05:53;;;;;;;;;;;;;;;;;;1041660;28;3966;-69
2022/04/16 02:06:23;;;;;;;;;;;;;;;;;;1041767;28;3728;-66
2022/04/16 02:06:53;;;;;;;;;;;;;;;;;;1041731;28;4415;-65
2022/04/16 02:07:24;;;;;;;;;;;;;;;;;;1037988;28;3586;-66
2022/04/16 02:07:54;;;;;;;;;;;;;;;;;;1037325;28;4274;-68
2022/04/16 02:08:24;;;;;;;;;;;;;;;;;;1038078;28;3090;-69
2022/04/16 02:09:07;;;;;;;;;;;;;;;;;;1038800;28;3803;-67
2022/04/16 02:09:45;;;;;;;;;;;;;;;;;;1041120;28;3920;-66
2022/04/16 02:10:16;;;;;;;;;;;;;;;;;;1042706;28;3701;-69
2022/04/16 02:10:46;;;;;;;;;;;;;;;;;;1040534;28;3984;-67
2022/04/16 02:11:17;;;;;;;;;;;;;;;;;;1040672;28;3468;-67
2022/04/16 02:11:47;;;;;;;;;;;;;;;;;;1036301;28;3950;-68
2022/04/16 02:12:17;;;;;;;;;;;;;;;;;;1036273;28;3107;-67
2022/04/16 02:12:47;;;;;;;;;;;;;;;;;;1039376;28;4455;-65
2022/04/16 02:13:18;;;;;;;;;;;;;;;;;;1039715;28;2605;-67
2022/04/16 02:13:48;;;;;;;;;;;;;;;;;;1043090;28;3901;-67
2022/04/16 02:14:21;;;;;;;;;;;;;;;;;;1043690;28;3575;-66
2022/04/16 02:14:51;;;;;;;;;;;;;;;;;;1039141;28;3988;-66
2022/04/16 02:15:22;;;;;;;;;;;;;;;;;;1040271;28;2988;-67
2022/04/16 02:15:52;;;;;;;;;;;;;;;;;;1040625;28;3936;-68
2022/04/16 02:16:23;;;;;;;;;;;;;;;;;;1040552;28;3214;-65
2022/04/16 02:16:54;;;;;;;;;;;;;;;;;;1041989;28;4425;-68
2022/04/16 02:17:24;;;;;;;;;;;;;;;;;;1044042;28;2927;-66
2022/04/16 02:17:56;;;;;;;;;;;;;;;;;;1042601;28;4127;-66
2022/04/16 02:18:27;;;;;;;;;;;;;;;;;;1042736;28;3515;-66
2022/04/16 02:19:04;;;;;;;;;;;;;;;;;;1042244;28;4436;-66
2022/04/16 02:19:36;;;;;;;;;;;;;;;;;;1033036;28;4771;-65
2022/04/16 02:20:30;;;;;;;;;;;;;;;;;;1032730;28;3507;-66
2022/04/16 02:21:12;;;;;;;;;;;;;;;;;;1030213;28;3837;-65
2022/04/16 02:21:46;;;;;;;;;;;;;;;;;;1022316;28;3877;-68
2022/04/16 02:22:23;;;;;;;;;;;;;;;;;;1031646;28;3032;-65
2022/04/16 02:22:59;;;;;;;;;;;;;;;;;;1039928;28;3923;-65
2022/04/16 02:23:29;;;;;;;;;;;;;;;;;;1039610;28;3028;-67
2022/04/16 02:23:59;;;;;;;;;;;;;;;;;;1041910;28;3820;-70
2022/04/16 02:24:30;;;;;;;;;;;;;;;;;;1040470;28;2455;-70
2022/04/16 02:25:03;;;;;;;;;;;;;;;;;;1034421;28;3985;-69
2022/04/16 02:25:34;;;;;;;;;;;;;;;;;;1035783;28;4166;-68
2022/04/16 02:26:07;;;;;;;;;;;;;;;;;;1035874;28;2886;-67
2022/04/16 02:26:37;;;;;;;;;;;;;;;;;;1041389;28;4241;-68
2022/04/16 02:27:07;;;;;;;;;;;;;;;;;;1044026;28;3102;-69
2022/04/16 02:27:38;;;;;;;;;;;;;;;;;;1038987;28;3855;-67
2022/04/16 02:28:08;;;;;;;;;;;;;;;;;;1039346;28;3472;-70
2022/04/16 02:28:39;;;;;;;;;;;;;;;;;;1039308;28;3810;-67
2022/04/16 02:29:09;;;;;;;;;;;;;;;;;;1039038;28;3567;-68
2022/04/16 02:29:40;;;;;;;;;;;;;;;;;;1043315;28;4020;-67
2022/04/16 02:30:12;;;;;;;;;;;;;;;;;;1042472;28;3628;-66
2022/04/16 02:30:42;;;;;;;;;;;;;;;;;;1039015;28;3964;-69
2022/04/16 02:31:15;;;;;;;;;;;;;;;;;;1031901;28;3650;-66
2022/04/16 02:31:47;;;;;;;;;;;;;;;;;;1030524;28;4130;-68
2022/04/16 02:32:18;;;;;;;;;;;;;;;;;;1029605;28;3260;-68
2022/04/16 02:32:52;;;;;;;;;;;;;;;;;;1031536;28;4220;-67
2022/04/16 02:33:30;;;;;;;;;;;;;;;;;;1032012;28;2976;-70
2022/04/16 02:34:01;;;;;;;;;;;;;;;;;;1035248;28;3871;-67
2022/04/16 02:34:31;;;;;;;;;;;;;;;;;;1034943;28;4230;-66
2022/04/16 02:35:01;;;;;;;;;;;;;;;;;;1036182;28;2631;-67
2022/04/16 02:35:32;;;;;;;;;;;;;;;;;;1030459;28;4104;-67
2022/04/16 02:36:04;;;;;;;;;;;;;;;;;;1030914;28;3169;-67
2022/04/16 02:36:34;;;;;;;;;;;;;;;;;;1028850;28;4079;-67
2022/04/16 02:37:05;;;;;;;;;;;;;;;;;;1030234;28;3699;-66
2022/04/16 02:37:35;;;;;;;;;;;;;;;;;;1031252;28;4078;-70
2022/04/16 02:38:06;;;;;;;;;;;;;;;;;;1030792;28;3628;-69
2022/04/16 02:38:36;;;;;;;;;;;;;;;;;;1030667;28;3807;-68
2022/04/16 02:39:08;;;;;;;;;;;;;;;;;;1038181;28;3700;-66
2022/04/16 02:39:38;;;;;;;;;;;;;;;;;;1038797;28;4060;-66
2022/04/16 02:40:09;;;;;;;;;;;;;;;;;;1039469;28;3158;-67
2022/04/16 02:40:39;;;;;;;;;;;;;;;;;;1036307;28;4113;-68
2022/04/16 02:41:09;;;;;;;;;;;;;;;;;;1033316;28;3516;-69
2022/04/16 02:41:39;;;;;;;;;;;;;;;;;;1030916;28;4946;-69
2022/04/16 02:42:10;;;;;;;;;;;;;;;;;;1032490;28;5520;-68
2022/04/16 02:42:41;;;;;;;;;;;;;;;;;;1030906;28;4267;-68
2022/04/16 02:43:12;;;;;;;;;;;;;;;;;;1029820;28;5700;-67
2022/04/16 02:43:42;;;;;;;;;;;;;;;;;;1030908;28;5150;-67
2022/04/16 02:47:05;;;;;;;;;;;;;;;;;;1031281;28;3125;-69
2022/04/16 02:47:33;;;;;;;;;;;;;;;;;;1030344;28;3837;-66
2022/04/16 02:48:04;;;;;;;;;;;;;;;;;;1031973;28;3798;-67
2022/04/16 02:48:35;;;;;;;;;;;;;;;;;;1032397;28;3973;-66
2022/04/16 02:49:06;;;;;;;;;;;;;;;;;;1030716;28;2776;-66
2022/04/16 02:49:38;;;;;;;;;;;;;;;;;;1030173;28;4058;-67
2022/04/16 02:50:09;;;;;;;;;;;;;;;;;;1031202;28;3816;-66
2022/04/16 02:50:39;;;;;;;;;;;;;;;;;;1030910;28;4047;-67
2022/04/16 02:51:09;;;;;;;;;;;;;;;;;;1031492;28;3483;-64
2022/04/16 02:51:39;;;;;;;;;;;;;;;;;;1030681;28;4425;-65
2022/04/16 02:52:10;;;;;;;;;;;;;;;;;;1030823;28;4819;-65
2022/04/16 02:52:41;;;;;;;;;;;;;;;;;;1033005;28;3803;-66
2022/04/16 02:53:11;;;;;;;;;;;;;;;;;;1033149;28;3757;-66
2022/04/16 02:53:42;;;;;;;;;;;;;;;;;;1030960;28;4304;-67
2022/04/16 02:54:12;;;;;;;;;;;;;;;;;;1032446;28;3810;-67
2022/04/16 02:54:42;;;;;;;;;;;;;;;;;;1032367;28;4084;-66
2022/04/16 02:55:15;;;;;;;;;;;;;;;;;;1031397;28;3686;-67
2022/04/16 02:55:46;;;;;;;;;;;;;;;;;;1031524;28;3896;-67
2022/04/16 02:56:17;;;;;;;;;;;;;;;;;;1030759;28;3763;-65
2022/04/16 02:56:48;;;;;;;;;;;;;;;;;;1030154;28;4222;-65
2022/04/16 02:57:18;;;;;;;;;;;;;;;;;;1032386;28;3657;-67
2022/04/16 02:57:51;;;;;;;;;;;;;;;;;;1031413;28;4038;-66
2022/04/16 02:58:22;;;;;;;;;;;;;;;;;;1032231;28;3628;-65
2022/04/16 02:58:52;;;;;;;;;;;;;;;;;;1030056;28;4096;-67
2022/04/16 02:59:23;;;;;;;;;;;;;;;;;;1031735;28;3105;-66
2022/04/16 02:59:53;;;;;;;;;;;;;;;;;;1030860;28;3793;-68
2022/04/16 03:00:25;;;;;;;;;;;;;;;;;;1029734;28;3619;-66
2022/04/16 03:01:02;;;;;;;;;;;;;;;;;;1030992;28;3857;-66
2022/04/16 03:01:32;;;;;;;;;;;;;;;;;;1030574;28;4430;-67
2022/04/16 03:02:02;;;;;;;;;;;;;;;;;;1032283;28;2497;-64
2022/04/16 03:02:33;;;;;;;;;;;;;;;;;;1030342;28;4011;-65
2022/04/16 03:03:03;;;;;;;;;;;;;;;;;;1033042;28;2047;-67
2022/04/16 03:03:33;;;;;;;;;;;;;;;;;;1031094;28;4446;-66
2022/04/16 03:04:03;;;;;;;;;;;;;;;;;;1030952;28;3657;-66
2022/04/16 03:04:34;;;;;;;;;;;;;;;;;;1032138;28;3987;-67
2022/04/16 03:05:06;;;;;;;;;;;;;;;;;;1031961;28;3587;-68
2022/04/16 03:05:36;;;;;;;;;;;;;;;;;;1033174;28;3872;-67
2022/04/16 03:06:07;;;;;;;;;;;;;;;;;;1032609;28;3017;-66
2022/04/16 03:06:37;;;;;;;;;;;;;;;;;;1031581;28;3884;-65
2022/04/16 03:07:07;;;;;;;;;;;;;;;;;;1032436;28;2878;-64
2022/04/16 03:07:38;;;;;;;;;;;;;;;;;;1032266;28;3891;-67
2022/04/16 03:08:10;;;;;;;;;;;;;;;;;;1032353;28;3703;-67
2022/04/16 03:08:40;;;;;;;;;;;;;;;;;;1032543;28;3827;-66
2022/04/16 03:09:23;;;;;;;;;;;;;;;;;;1035078;28;3685;-65
2022/04/16 03:10:02;;;;;;;;;;;;;;;;;;1042855;28;3899;-66
2022/04/16 03:10:33;;;;;;;;;;;;;;;;;;1038613;28;3916;-66
2022/04/16 03:11:06;;;;;;;;;;;;;;;;;;1040948;28;3660;-67
2022/04/16 03:11:37;;;;;;;;;;;;;;;;;;1034928;28;4126;-67
2022/04/16 03:12:07;;;;;;;;;;;;;;;;;;1033810;28;3667;-65
2022/04/16 03:12:48;;;;;;;;;;;;;;;;;;1035900;28;4267;-68
2022/04/16 03:13:19;;;;;;;;;;;;;;;;;;1039106;28;3828;-67
2022/04/16 03:13:49;;;;;;;;;;;;;;;;;;1038240;28;4082;-66
2022/04/16 03:17:36;;;;;;;;;;;;;;;;;;1041053;28;4157;-68
2022/04/16 03:18:07;;;;;;;;;;;;;;;;;;1040912;28;3684;-67
2022/04/16 03:18:38;;;;;;;;;;;;;;;;;;1038445;28;4207;-68
2022/04/16 03:19:08;;;;;;;;;;;;;;;;;;1040075;28;3638;-67
2022/04/16 03:19:38;;;;;;;;;;;;;;;;;;1037101;28;4255;-66
2022/04/16 03:20:09;;;;;;;;;;;;;;;;;;1034001;28;3651;-68
2022/04/16 03:20:40;;;;;;;;;;;;;;;;;;1032818;28;3818;-68
2022/04/16 03:21:11;;;;;;;;;;;;;;;;;;1029398;28;3777;-67
2022/04/16 03:21:41;;;;;;;;;;;;;;;;;;1031346;28;4078;-68
2022/04/16 03:22:12;;;;;;;;;;;;;;;;;;1035296;28;2961;-67
2022/04/16 03:22:43;;;;;;;;;;;;;;;;;;1036250;28;3980;-65
2022/04/16 03:23:13;;;;;;;;;;;;;;;;;;1038676;28;3648;-68
2022/04/16 03:23:44;;;;;;;;;;;;;;;;;;1039835;28;3821;-66
2022/04/16 03:24:14;;;;;;;;;;;;;;;;;;1040325;28;3264;-68
2022/04/16 03:24:44;;;;;;;;;;;;;;;;;;1039786;28;3803;-68
2022/04/16 03:25:14;;;;;;;;;;;;;;;;;;1039492;28;3689;-65
2022/04/16 03:25:45;;;;;;;;;;;;;;;;;;1040337;28;3807;-67
2022/04/16 03:26:15;;;;;;;;;;;;;;;;;;1040174;28;3279;-67
2022/04/16 03:26:46;;;;;;;;;;;;;;;;;;1039809;28;3975;-67
2022/04/16 03:27:16;;;;;;;;;;;;;;;;;;1041460;28;3044;-66
2022/04/16 03:27:46;;;;;;;;;;;;;;;;;;1038497;28;4005;-66
2022/04/16 03:28:16;;;;;;;;;;;;;;;;;;1040347;28;3661;-67
2022/04/16 03:28:47;;;;;;;;;;;;;;;;;;1040188;28;3888;-68
2022/04/16 03:29:17;;;;;;;;;;;;;;;;;;1040541;28;3402;-69
2022/04/16 03:29:47;;;;;;;;;;;;;;;;;;1041320;28;3950;-67
2022/04/16 03:30:18;;;;;;;;;;;;;;;;;;1040113;28;3573;-67
2022/04/16 03:30:48;;;;;;;;;;;;;;;;;;1041208;28;4214;-66
2022/04/16 03:31:18;;;;;;;;;;;;;;;;;;1034872;28;3702;-67
2022/04/16 03:31:49;;;;;;;;;;;;;;;;;;1041171;28;3996;-67
2022/04/16 03:32:19;;;;;;;;;;;;;;;;;;1040110;28;3795;-67
2022/04/16 03:32:50;;;;;;;;;;;;;;;;;;1041737;28;4069;-66
2022/04/16 03:33:20;;;;;;;;;;;;;;;;;;1044007;28;4195;-67
2022/04/16 03:33:51;;;;;;;;;;;;;;;;;;1035045;28;3999;-68
2022/04/16 03:34:21;;;;;;;;;;;;;;;;;;1037506;28;3811;-67
2022/04/16 03:34:52;;;;;;;;;;;;;;;;;;1033948;28;3997;-66
2022/04/16 03:35:23;;;;;;;;;;;;;;;;;;1034126;28;3490;-67
2022/04/16 03:35:53;;;;;;;;;;;;;;;;;;1033310;28;4070;-65
2022/04/16 03:36:24;;;;;;;;;;;;;;;;;;1036057;28;3379;-66
2022/04/16 03:36:54;;;;;;;;;;;;;;;;;;1040949;28;3957;-67
2022/04/16 03:37:24;;;;;;;;;;;;;;;;;;1043743;28;3029;-68
2022/04/16 03:37:55;;;;;;;;;;;;;;;;;;1042945;28;4117;-66
2022/04/16 03:38:34;;;;;;;;;;;;;;;;;;1040199;28;3705;-67
2022/04/16 03:39:05;;;;;;;;;;;;;;;;;;1035028;28;3992;-69
2022/04/16 03:39:35;;;;;;;;;;;;;;;;;;1034647;28;3910;-69
2022/04/16 03:40:06;;;;;;;;;;;;;;;;;;1033597;28;3601;-68
2022/04/16 03:40:58;;;;;;;;;;;;;;;;;;1023979;28;4172;-69
2022/04/16 03:41:59;;;;;;;;;;;;;;;;;;1032177;28;2938;-66
2022/04/16 03:42:49;;;;;;;;;;;;;;;;;;1042305;28;3037;-67
2022/04/16 03:43:20;;;;;;;;;;;;;;;;;;1039876;28;3640;-68
2022/04/16 03:43:53;;;;;;;;;;;;;;;;;;1039202;28;3866;-70
2022/04/16 03:44:24;;;;;;;;;;;;;;;;;;1043149;28;3628;-68
2022/04/16 03:44:54;;;;;;;;;;;;;;;;;;1034823;28;4143;-67
2022/04/16 03:45:27;;;;;;;;;;;;;;;;;;1034481;28;3218;-67
2022/04/16 03:46:10;;;;;;;;;;;;;;;;;;1037001;28;4070;-67